Emigrant Gap, CA

5:07 AM PDT on October 25, 2014 (GMT -0700)
Blue Canyon-Nyack | Change Station
CLOSE
Current Station
Airport
Location: Blue Canyon,
Elevation: 5282 ft
Nearby Weather Stations
Active Advisory: High Wind Warning

Elev 5282 ft 39.27 °N, 120.71 °W | Updated 4 minutes ago

Overcast
Overcast
45 °F
Feels Like 41 °F
N
7
Wind Variable Wind from SSE

Today
High -- | Low -- °F
--% Chance of Precip.
Yesterday
High -- | Low -- °F
Precip. -- in
7:23 AM 6:10 PM
Waxing Crescent, 3% visible
Pressure 30.03 in
Visibility 1.5 miles
Clouds Overcast 200 ft
Windchill 41 °F
Dew Point 42 °F
Humidity 90%
Rainfall 0.00 in
Snow Depth 0 in
UV 0 out of 12
Pollen 2.40 out of 12
Ozone Good
PM2.5 Moderate
Flu Activity Sporadic
SPECI KBLU 251203Z AUTO 15006KT 1 1/2SM BR OVC002 07/06 A3003 RMK AO2 T00720056

More Conditions Fewer Conditions

Pressure 30.03 in
Visibility 1.5 miles
Clouds Overcast 200 ft
Windchill 41 °F
Dew Point 42 °F
Humidity 90%
Rainfall 0.00 in
Snow Depth 0 in
UV 0 out of 12
Pollen 2.40 out of 12
Ozone Good
PM2.5 Moderate
Flu Activity Sporadic
SPECI KBLU 251203Z AUTO 15006KT 1 1/2SM BR OVC002 07/06 A3003 RMK AO2 T00720056

More Conditions Fewer Conditions

10-Day Weather Forecast

Almanac

Astronomy

Oct. 25, 2014 Rise Set
Actual Time 7:23 AM PDT 6:10 PM PDT
Civil Twilight 6:55 AM PDT 6:37 PM PDT
Nautical Twilight 6:24 AM PDT 7:08 PM PDT
Astronomical Twilight 5:53 AM PDT 7:39 PM PDT
Moon 9:06 AM PDT 7:37 PM PDT
Length of Visible Light 11h 41m
Length of Day
10h 46m
Tomorrow will be 2m 21s shorter.
Waxing Crescent, 3% of the Moon is Illuminated
Today
Waxing Crescent
Oct 30
First Quarter
Nov 6
Full
Nov 14
Last Quarter
Nov 22
New

Today's Extremes

State Highs State Lows

Community

WunderPhotos

Upload Photos

1,764,816 photos uploaded!

Nearby

Air Quality

  Air Quality AQ Index Pollutant
Yesterday Moderate
OZONE
Yesterday Good
PM2.5
Current Moderate
PM2.5
Current Good
OZONE
Saturday Good
OZONE
Sunday Good
OZONE
Monday Good
OZONE
Tuesday Good
OZONE
Wednesday Good
OZONE

Snow Depth

Station Depth Elevation
CSS Lab 0 in 6900 ft
Independence Lake 0 in 8450 ft
Squaw Valley 0 in 8200 ft
Independence Camp 0 in 7000 ft
Ward Creek #3 1 in 6750 ft

Earthquake Activity

City Distance Mag. Time & Date
Gerlach-Empire, Nevada 88 miles 2.5 7:16 AM PDT
2014-10-23
Minimum magnitude displayed is 2.5.

Coastal Water Temperatures

Place Temperature
No Stations Reporting

Nearby Weather Stations